Estación Meteorológica Peña el Pijo (Robertgarden) [ 01/30/23 15:27:23 CET ]

Fecha Hora Presion(HPa) Temp (°C) Humedad % Rocio (°C) Viento ( m/s) Direccion Lluvia 1Hora(mm) Lluvia 24H(mm) LLuvia Total(mm)
2010-Apr-19 01:01:12 1009.800 6.1 93 5.0         111.88
2010-Apr-19 02:01:13 1009.500 6.1 93 5.0         111.88
2010-Apr-19 03:03:16 1009.200 5.3 94 4.4         111.88
2010-Apr-19 04:01:11 1009.100 4.4 94 3.5         111.88
2010-Apr-19 05:01:14 1009.200 3.5 93 2.5         111.88
2010-Apr-19 06:01:13 1009.000 3.1 94 2.2         111.88
2010-Apr-19 07:01:17 1009.100 3.1 94 2.2         111.88
2010-Apr-19 08:01:16 1009.600 3.8 95 3.0         111.88
2010-Apr-19 09:01:15 1010.000 5.9 95 5.2         111.88
2010-Apr-19 10:01:14 1010.000 8.4 95 7.7         111.88
2010-Apr-19 11:01:11 1010.600 10.4 87 8.3         111.88
2010-Apr-19 12:01:12 1011.000 11.8 79 8.3         111.88
2010-Apr-19 13:01:16 1011.100 13.8 67 7.8         111.88
2010-Apr-19 14:01:12 1011.000 16.2 58 7.9         111.88
2010-Apr-19 15:01:12 1010.600 17.9 49 7.0         111.88
2010-Apr-19 16:01:14 1010.400 18.6 50 8.0         111.88
2010-Apr-19 17:01:11 1009.800 19.9 46 7.9         111.88
2010-Apr-19 18:01:11 1009.600 18.0 47 6.4         111.88
2010-Apr-19 19:01:18 1009.900 16.0 51 5.9         111.88
2010-Apr-19 20:01:13 1009.600 14.4 57 6.0         111.88
2010-Apr-19 21:01:11 1010.000 12.2 63 5.3         111.88
2010-Apr-19 22:01:13 1011.000 10.6 74 6.2         111.88
2010-Apr-19 23:01:14 1011.500 8.8 79 5.3         111.88

Temperatura Máxima:19°    Temperatura Mínima:
Presión Máxima:1011.500 Hpa    Presión Mínima:1009.000 Hpa


Volver